Time;durP1;ratioP1;P1;durP2;ratioP2;P2;SDS_P1;SDS_P2;PMS_P1;PMS_P2;Temp;Humidity;BMP_temperature;BMP_pressure;BME280_temperature;BME280_humidity;BME280_pressure;Samples;Min_cycle;Max_cycle;Signal;HPM_P1;HPM_P2
2022/08/31 00:05:08;;;;;;;10.60;7.45;;;;;;;;;;5249187;23;20034;-81
2022/08/31 00:07:34;;;;;;;9.30;7.30;;;;;;;;;;5033415;28;20025;-83
2022/08/31 00:10:02;;;;;;;12.02;6.93;;;;;;;;;;5046473;28;20092;-87
2022/08/31 00:12:29;;;;;;;11.13;7.55;;;;;;;;;;5034433;28;20435;-86
2022/08/31 00:14:55;;;;;;;11.80;6.82;;;;;;;;;;5035862;28;20060;-85
2022/08/31 00:17:21;;;;;;;10.25;7.10;;;;;;;;;;5044819;28;20030;-84
2022/08/31 00:19:47;;;;;;;9.32;7.50;;;;;;;;;;5032824;28;20025;-85
2022/08/31 00:22:16;;;;;;;9.35;7.18;;;;;;;;;;5039704;28;20041;-78
2022/08/31 00:24:42;;;;;;;11.40;7.00;;;;;;;;;;5038417;28;20071;-81
2022/08/31 00:27:08;;;;;;;9.73;7.05;;;;;;;;;;5022903;28;20025;-84
2022/08/31 00:29:35;;;;;;;9.32;7.80;;;;;;;;;;5008259;28;20037;-80
2022/08/31 00:32:01;;;;;;;9.13;7.60;;;;;;;;;;5026015;28;20069;-84
2022/08/31 00:34:27;;;;;;;8.95;7.68;;;;;;;;;;5030555;28;20167;-87
2022/08/31 00:36:53;;;;;;;8.40;7.45;;;;;;;;;;5043403;28;20490;-86
2022/08/31 00:39:20;;;;;;;10.80;7.55;;;;;;;;;;5043339;28;20037;-84
2022/08/31 00:41:46;;;;;;;9.75;6.93;;;;;;;;;;5034069;28;20037;-83
2022/08/31 00:44:12;;;;;;;9.60;7.85;;;;;;;;;;5040185;28;20490;-81
2022/08/31 00:46:40;;;;;;;11.13;7.55;;;;;;;;;;5030034;28;20034;-85
2022/08/31 00:49:11;;;;;;;10.38;7.38;;;;;;;;;;5040323;28;20129;-81
2022/08/31 00:51:40;;;;;;;10.32;7.53;;;;;;;;;;5034936;28;20076;-84
2022/08/31 00:54:07;;;;;;;13.80;7.93;;;;;;;;;;5035048;28;20083;-87
2022/08/31 00:56:35;;;;;;;10.63;7.32;;;;;;;;;;5036809;28;20029;-88
2022/08/31 00:59:01;;;;;;;13.75;8.15;;;;;;;;;;5051392;28;20036;-84
2022/08/31 01:01:29;;;;;;;10.15;7.68;;;;;;;;;;5032969;28;20029;-79
2022/08/31 01:03:57;;;;;;;9.35;7.88;;;;;;;;;;5041335;28;20037;-82
2022/08/31 01:06:24;;;;;;;13.13;8.15;;;;;;;;;;5027006;28;20060;-80
2022/08/31 01:08:51;;;;;;;9.48;8.05;;;;;;;;;;5033608;28;20033;-83
2022/08/31 01:11:18;;;;;;;13.90;8.10;;;;;;;;;;5024878;28;20034;-86
2022/08/31 01:13:44;;;;;;;10.48;7.93;;;;;;;;;;5023960;28;20030;-81
2022/08/31 01:16:13;;;;;;;12.02;7.88;;;;;;;;;;5028270;28;20049;-82
2022/08/31 01:18:40;;;;;;;9.95;7.53;;;;;;;;;;5009973;28;20520;-80
2022/08/31 01:21:16;;;;;;;12.00;7.97;;;;;;;;;;5022362;28;20049;-81
2022/08/31 01:23:43;;;;;;;15.10;7.95;;;;;;;;;;5022734;28;20029;-87
2022/08/31 01:26:11;;;;;;;10.45;7.75;;;;;;;;;;5032563;28;20021;-84
2022/08/31 01:28:37;;;;;;;9.35;7.72;;;;;;;;;;5019190;28;20387;-88
2022/08/31 01:31:09;;;;;;;11.15;8.15;;;;;;;;;;5033806;28;20025;-87
2022/08/31 01:33:36;;;;;;;10.77;8.20;;;;;;;;;;5016626;28;20028;-83
2022/08/31 01:36:03;;;;;;;10.63;8.45;;;;;;;;;;5005670;28;20052;-88
2022/08/31 01:38:30;;;;;;;12.90;8.50;;;;;;;;;;5021410;28;20085;-87
2022/08/31 01:41:00;;;;;;;12.55;8.18;;;;;;;;;;5024316;28;20088;-88
2022/08/31 01:43:26;;;;;;;12.73;8.60;;;;;;;;;;5025316;28;20072;-88
2022/08/31 01:45:52;;;;;;;12.05;7.88;;;;;;;;;;5033382;28;20049;-88
2022/08/31 01:48:18;;;;;;;12.63;8.88;;;;;;;;;;5027602;28;20031;-86
2022/08/31 01:50:44;;;;;;;13.77;8.13;;;;;;;;;;5032155;28;20033;-85
2022/08/31 01:53:11;;;;;;;12.48;8.40;;;;;;;;;;5019947;28;20029;-85
2022/08/31 01:55:38;;;;;;;12.68;7.75;;;;;;;;;;5031864;28;20022;-87
2022/08/31 01:58:04;;;;;;;12.70;8.25;;;;;;;;;;5032974;28;20025;-84
2022/08/31 02:00:31;;;;;;;11.20;8.63;;;;;;;;;;5025048;28;20068;-85
2022/08/31 02:02:58;;;;;;;11.07;8.75;;;;;;;;;;5021862;28;20113;-82
2022/08/31 02:05:24;;;;;;;12.43;8.50;;;;;;;;;;5002663;28;20046;-85
2022/08/31 02:07:50;;;;;;;13.75;8.75;;;;;;;;;;4993654;28;20026;-86
2022/08/31 02:10:16;;;;;;;13.27;8.82;;;;;;;;;;4998245;28;20033;-87
2022/08/31 02:12:42;;;;;;;16.67;9.45;;;;;;;;;;4998893;28;20081;-86
2022/08/31 02:15:09;;;;;;;12.50;9.55;;;;;;;;;;4993135;28;20116;-86
2022/08/31 02:17:35;;;;;;;11.90;9.82;;;;;;;;;;5003492;28;20479;-85
2022/08/31 02:20:02;;;;;;;15.20;9.55;;;;;;;;;;5009956;28;20511;-84
2022/08/31 02:22:28;;;;;;;15.75;10.30;;;;;;;;;;5010743;28;20116;-84
2022/08/31 02:24:54;;;;;;;12.90;9.52;;;;;;;;;;4993766;28;20388;-81
2022/08/31 02:27:20;;;;;;;12.55;9.57;;;;;;;;;;5000008;28;20042;-85
2022/08/31 02:29:46;;;;;;;14.52;10.70;;;;;;;;;;5009778;28;20025;-85
2022/08/31 02:32:12;;;;;;;15.65;9.98;;;;;;;;;;5003970;28;20034;-83
2022/08/31 02:34:39;;;;;;;14.82;9.38;;;;;;;;;;5006807;28;20026;-86
2022/08/31 02:37:06;;;;;;;15.18;9.38;;;;;;;;;;4992265;28;20380;-88
2022/08/31 02:39:32;;;;;;;11.68;9.30;;;;;;;;;;4993354;28;20105;-84
2022/08/31 02:41:58;;;;;;;13.88;9.05;;;;;;;;;;5004546;28;20058;-86
2022/08/31 02:44:24;;;;;;;11.48;9.35;;;;;;;;;;5012579;28;20037;-84
2022/08/31 02:46:51;;;;;;;16.70;9.77;;;;;;;;;;4999330;28;20524;-77
2022/08/31 02:49:17;;;;;;;13.32;9.73;;;;;;;;;;5002622;28;20583;-85
2022/08/31 02:51:43;;;;;;;14.45;9.48;;;;;;;;;;4998905;28;20031;-87
2022/08/31 02:54:10;;;;;;;11.85;9.82;;;;;;;;;;4993164;28;20027;-85
2022/08/31 02:56:37;;;;;;;14.05;10.52;;;;;;;;;;4998522;28;20472;-79
2022/08/31 02:59:03;;;;;;;14.43;11.05;;;;;;;;;;5006726;28;20038;-81
2022/08/31 03:01:29;;;;;;;15.05;11.52;;;;;;;;;;4998368;28;20035;-86
2022/08/31 03:03:56;;;;;;;15.75;11.38;;;;;;;;;;5004253;28;20018;-84
2022/08/31 03:06:22;;;;;;;13.50;10.95;;;;;;;;;;5029621;28;20041;-84
2022/08/31 03:08:49;;;;;;;14.10;11.52;;;;;;;;;;5016534;28;20029;-81
2022/08/31 03:11:15;;;;;;;17.83;11.63;;;;;;;;;;5018999;28;20080;-87
2022/08/31 03:13:41;;;;;;;15.65;12.05;;;;;;;;;;5010925;28;20383;-79
2022/08/31 03:16:08;;;;;;;15.75;11.98;;;;;;;;;;5023395;28;20157;-81
2022/08/31 03:18:34;;;;;;;14.45;12.23;;;;;;;;;;5014516;28;20026;-87
2022/08/31 03:21:01;;;;;;;15.95;12.75;;;;;;;;;;5030861;28;20037;-82
2022/08/31 03:23:27;;;;;;;17.88;12.13;;;;;;;;;;5028212;28;20037;-85
2022/08/31 03:25:53;;;;;;;16.48;12.82;;;;;;;;;;5034356;28;20052;-82
2022/08/31 03:28:19;;;;;;;16.73;12.25;;;;;;;;;;5031523;28;20085;-84
2022/08/31 03:30:45;;;;;;;17.95;13.00;;;;;;;;;;5017488;28;20033;-86
2022/08/31 03:33:11;;;;;;;16.60;12.98;;;;;;;;;;5003656;28;20032;-83
2022/08/31 03:35:42;;;;;;;20.98;13.25;;;;;;;;;;5023698;28;20044;-84
2022/08/31 03:38:08;;;;;;;18.73;13.57;;;;;;;;;;5032060;28;20030;-85
2022/08/31 03:40:34;;;;;;;18.27;12.88;;;;;;;;;;5026065;28;20095;-84
2022/08/31 03:43:00;;;;;;;18.33;13.82;;;;;;;;;;5035713;28;20030;-86
2022/08/31 03:45:27;;;;;;;17.33;13.32;;;;;;;;;;5033506;28;20033;-79
2022/08/31 03:47:53;;;;;;;19.77;13.95;;;;;;;;;;5035803;28;20030;-75
2022/08/31 03:50:19;;;;;;;17.80;14.07;;;;;;;;;;5028598;28;20075;-86
2022/08/31 03:52:46;;;;;;;18.75;14.18;;;;;;;;;;5035819;28;20095;-86
2022/08/31 03:55:12;;;;;;;20.52;14.38;;;;;;;;;;5030329;28;20017;-86
2022/08/31 03:57:38;;;;;;;15.50;12.88;;;;;;;;;;5032866;28;20065;-81
2022/08/31 04:00:05;;;;;;;16.92;13.63;;;;;;;;;;5027388;28;20379;-84
2022/08/31 04:02:31;;;;;;;17.73;13.43;;;;;;;;;;5002214;28;20106;-84
2022/08/31 04:04:57;;;;;;;16.40;12.48;;;;;;;;;;5027653;28;20495;-83
2022/08/31 04:07:23;;;;;;;18.80;14.05;;;;;;;;;;5034888;28;20021;-84
2022/08/31 04:09:50;;;;;;;16.55;13.00;;;;;;;;;;5025089;28;20030;-80
2022/08/31 04:12:17;;;;;;;20.10;14.00;;;;;;;;;;5017451;28;20025;-85
2022/08/31 04:14:43;;;;;;;17.58;13.45;;;;;;;;;;5028720;28;20032;-72
2022/08/31 04:17:10;;;;;;;17.75;13.70;;;;;;;;;;5012936;28;20065;-82
2022/08/31 04:19:37;;;;;;;17.20;13.02;;;;;;;;;;5013703;28;20037;-83
2022/08/31 04:22:03;;;;;;;19.73;12.98;;;;;;;;;;5026480;28;20044;-84
2022/08/31 04:24:31;;;;;;;19.30;11.82;;;;;;;;;;5016994;28;20030;-82
2022/08/31 04:26:57;;;;;;;16.77;11.55;;;;;;;;;;5029187;28;20116;-81
2022/08/31 04:29:23;;;;;;;16.50;12.05;;;;;;;;;;5030021;28;20035;-82
2022/08/31 04:31:49;;;;;;;19.60;13.10;;;;;;;;;;5024376;28;20029;-84
2022/08/31 04:34:15;;;;;;;18.08;12.55;;;;;;;;;;5016846;28;20030;-82
2022/08/31 04:36:44;;;;;;;15.52;12.48;;;;;;;;;;5013942;28;20472;-84
2022/08/31 04:39:10;;;;;;;16.45;11.35;;;;;;;;;;5023136;28;20026;-83
2022/08/31 04:41:38;;;;;;;15.48;12.20;;;;;;;;;;5025502;28;20421;-87
2022/08/31 04:44:06;;;;;;;14.00;11.15;;;;;;;;;;5016652;28;20424;-76
2022/08/31 04:46:33;;;;;;;18.35;11.93;;;;;;;;;;5016925;28;20036;-84
2022/08/31 04:48:59;;;;;;;14.93;11.27;;;;;;;;;;5027624;28;20080;-77
2022/08/31 04:51:27;;;;;;;15.18;11.43;;;;;;;;;;5019551;28;20475;-84
2022/08/31 04:53:55;;;;;;;18.08;12.23;;;;;;;;;;5020040;28;20024;-80
2022/08/31 04:56:23;;;;;;;14.27;11.20;;;;;;;;;;5030084;28;20394;-82
2022/08/31 04:58:51;;;;;;;14.85;11.57;;;;;;;;;;5034405;28;20079;-83
2022/08/31 05:01:19;;;;;;;14.88;11.82;;;;;;;;;;5014396;28;20057;-86
2022/08/31 05:03:49;;;;;;;14.93;11.95;;;;;;;;;;5019103;28;20092;-77
2022/08/31 05:06:17;;;;;;;15.55;11.98;;;;;;;;;;5016575;28;20048;-88
2022/08/31 05:08:44;;;;;;;15.90;12.07;;;;;;;;;;5007382;28;20080;-84
2022/08/31 05:11:18;;;;;;;14.63;11.70;;;;;;;;;;5006926;28;20487;-85
2022/08/31 05:13:45;;;;;;;15.05;11.35;;;;;;;;;;4991751;28;20030;-87
2022/08/31 05:16:12;;;;;;;15.05;11.05;;;;;;;;;;5012577;28;20026;-88
2022/08/31 05:18:38;;;;;;;11.90;10.32;;;;;;;;;;5019260;28;20022;-90
2022/08/31 05:21:26;;;;;;;18.38;11.38;;;;;;;;;;5015408;28;20069;-77
2022/08/31 05:23:57;;;;;;;14.30;10.15;;;;;;;;;;5014166;28;20044;-76
2022/08/31 05:26:25;;;;;;;13.30;10.55;;;;;;;;;;4995723;28;20129;-86
2022/08/31 05:28:51;;;;;;;16.15;10.18;;;;;;;;;;5014223;28;20026;-91
2022/08/31 05:31:17;;;;;;;10.63;9.00;;;;;;;;;;5015514;28;20061;-92
2022/08/31 05:33:44;;;;;;;14.57;9.40;;;;;;;;;;5014498;28;20026;-87
2022/08/31 05:36:11;;;;;;;15.73;9.68;;;;;;;;;;4998583;28;20040;-95
2022/08/31 05:38:38;;;;;;;14.75;9.50;;;;;;;;;;4994770;28;20025;-86
2022/08/31 05:41:05;;;;;;;15.75;9.18;;;;;;;;;;5025592;28;20088;-86
2022/08/31 05:43:34;;;;;;;10.50;8.25;;;;;;;;;;5011080;28;20117;-89
2022/08/31 05:46:00;;;;;;;13.80;7.70;;;;;;;;;;4998570;28;20484;-87
2022/08/31 05:48:32;;;;;;;15.43;9.00;;;;;;;;;;4997843;28;20025;-77
2022/08/31 05:51:10;;;;;;;13.68;8.95;;;;;;;;;;4995531;28;20034;-78
2022/08/31 05:53:36;;;;;;;10.98;8.63;;;;;;;;;;4995975;28;20044;-74
2022/08/31 05:56:09;;;;;;;13.38;7.97;;;;;;;;;;4995787;28;20029;-72
2022/08/31 05:58:36;;;;;;;14.25;8.50;;;;;;;;;;5011182;28;20022;-74
2022/08/31 06:01:02;;;;;;;13.80;9.13;;;;;;;;;;5013027;28;20041;-75
2022/08/31 06:03:28;;;;;;;12.25;9.25;;;;;;;;;;5013551;28;20030;-75
2022/08/31 06:05:55;;;;;;;14.02;10.05;;;;;;;;;;5013066;28;20056;-85
2022/08/31 06:08:21;;;;;;;15.52;10.07;;;;;;;;;;5012898;28;20029;-85
2022/08/31 06:10:47;;;;;;;15.05;10.05;;;;;;;;;;5013196;28;20018;-79
2022/08/31 06:13:14;;;;;;;14.02;10.27;;;;;;;;;;5012204;28;20034;-83
2022/08/31 06:15:41;;;;;;;13.40;9.40;;;;;;;;;;5013243;28;20380;-80
2022/08/31 06:18:07;;;;;;;13.20;10.02;;;;;;;;;;5012988;28;20022;-83
2022/08/31 06:20:36;;;;;;;16.45;10.23;;;;;;;;;;5013399;28;20037;-84
2022/08/31 06:23:04;;;;;;;18.42;11.82;;;;;;;;;;5012551;28;20026;-88
2022/08/31 06:25:30;;;;;;;15.65;11.65;;;;;;;;;;5013025;28;20035;-84
2022/08/31 06:27:58;;;;;;;18.42;12.60;;;;;;;;;;5012500;28;20423;-84
2022/08/31 06:30:26;;;;;;;18.55;12.13;;;;;;;;;;5008284;28;20026;-75
2022/08/31 06:32:52;;;;;;;19.00;12.85;;;;;;;;;;5012438;28;20117;-79
2022/08/31 06:35:18;;;;;;;17.00;12.85;;;;;;;;;;5017242;28;20030;-84
2022/08/31 06:37:44;;;;;;;15.13;12.38;;;;;;;;;;4993375;28;20061;-88
2022/08/31 06:40:11;;;;;;;16.63;12.43;;;;;;;;;;4991042;28;20495;-89
2022/08/31 06:42:37;;;;;;;22.73;13.02;;;;;;;;;;5015779;28;20056;-89
2022/08/31 06:45:04;;;;;;;17.30;12.25;;;;;;;;;;5024299;28;20024;-79
2022/08/31 06:47:31;;;;;;;17.13;11.55;;;;;;;;;;5011797;28;20169;-91
2022/08/31 06:49:57;;;;;;;16.42;12.07;;;;;;;;;;4994632;28;20473;-90
2022/08/31 06:52:23;;;;;;;17.30;11.18;;;;;;;;;;5015236;28;20037;-86
2022/08/31 06:54:49;;;;;;;28.70;13.32;;;;;;;;;;4999056;28;20026;-83
2022/08/31 06:57:15;;;;;;;16.55;12.63;;;;;;;;;;5016471;28;20029;-84
2022/08/31 06:59:42;;;;;;;23.40;11.15;;;;;;;;;;5016714;28;20024;-82
2022/08/31 07:02:08;;;;;;;16.17;10.80;;;;;;;;;;5012062;28;20492;-81
2022/08/31 07:04:35;;;;;;;15.82;10.93;;;;;;;;;;5010517;28;20058;-81
2022/08/31 07:07:01;;;;;;;17.77;11.45;;;;;;;;;;4994143;28;20076;-74
2022/08/31 07:09:27;;;;;;;16.55;11.00;;;;;;;;;;4996378;28;20034;-72
2022/08/31 07:11:53;;;;;;;16.88;11.48;;;;;;;;;;5012093;28;20036;-74
2022/08/31 07:14:21;;;;;;;19.67;11.15;;;;;;;;;;5014052;28;20147;-78
2022/08/31 07:16:47;;;;;;;15.15;10.75;;;;;;;;;;4992342;28;20030;-81
2022/08/31 07:19:14;;;;;;;16.00;11.13;;;;;;;;;;5014597;28;20037;-79
2022/08/31 07:21:42;;;;;;;17.83;12.32;;;;;;;;;;5013835;28;20096;-81
2022/08/31 07:24:09;;;;;;;20.20;11.95;;;;;;;;;;5015472;28;20076;-79
2022/08/31 07:26:44;;;;;;;19.15;11.77;;;;;;;;;;5014536;28;20029;-83
2022/08/31 07:29:13;;;;;;;16.95;11.13;;;;;;;;;;5013726;28;20061;-80
2022/08/31 07:31:45;;;;;;;12.63;11.27;;;;;;;;;;5014578;28;20029;-80
2022/08/31 07:34:13;;;;;;;13.88;11.75;;;;;;;;;;5014446;28;20069;-83
2022/08/31 07:42:09;;;;;;;13.80;11.55;;;;;;;;;;5011224;28;20105;-76
2022/08/31 07:44:35;;;;;;;13.60;10.23;;;;;;;;;;5012939;28;20036;-86
2022/08/31 07:47:01;;;;;;;13.40;11.00;;;;;;;;;;4997088;28;20117;-87
2022/08/31 07:49:27;;;;;;;15.30;11.80;;;;;;;;;;4996316;28;20022;-85
2022/08/31 07:51:54;;;;;;;13.93;12.00;;;;;;;;;;5011208;28;20096;-86
2022/08/31 07:54:24;;;;;;;17.30;12.30;;;;;;;;;;4993845;28;20046;-76
2022/08/31 07:56:50;;;;;;;16.77;11.68;;;;;;;;;;5004317;28;20420;-83
2022/08/31 07:59:18;;;;;;;15.02;11.32;;;;;;;;;;5015475;28;20022;-85
2022/08/31 08:01:44;;;;;;;20.65;10.38;;;;;;;;;;5023153;28;20065;-80
2022/08/31 08:04:17;;;;;;;15.77;10.02;;;;;;;;;;5017295;28;20033;-81
2022/08/31 08:06:43;;;;;;;18.13;10.55;;;;;;;;;;4993424;28;20041;-84
2022/08/31 08:09:10;;;;;;;17.92;11.10;;;;;;;;;;4991187;28;20027;-72
2022/08/31 08:11:36;;;;;;;15.73;10.82;;;;;;;;;;4992051;28;20023;-73
2022/08/31 08:14:06;;;;;;;14.30;10.25;;;;;;;;;;4987531;28;20026;-77
2022/08/31 08:16:32;;;;;;;12.35;10.43;;;;;;;;;;4990160;28;20069;-75
2022/08/31 08:18:59;;;;;;;12.88;9.63;;;;;;;;;;4988051;28;20796;-84
2022/08/31 08:21:25;;;;;;;15.85;10.05;;;;;;;;;;4987782;28;20602;-78
2022/08/31 08:23:52;;;;;;;16.02;9.20;;;;;;;;;;4992950;28;20029;-74
2022/08/31 08:26:19;;;;;;;13.93;10.70;;;;;;;;;;4988559;28;20023;-74
2022/08/31 08:28:45;;;;;;;11.07;9.40;;;;;;;;;;4992411;28;20054;-74
2022/08/31 08:31:12;;;;;;;13.20;11.32;;;;;;;;;;4989412;28;20115;-74
2022/08/31 08:33:39;;;;;;;20.85;10.95;;;;;;;;;;4987610;28;20078;-70
2022/08/31 08:36:06;;;;;;;12.80;10.05;;;;;;;;;;4993494;28;20060;-71
2022/08/31 08:38:33;;;;;;;13.80;10.32;;;;;;;;;;4984236;28;20385;-70
2022/08/31 08:41:00;;;;;;;13.15;9.82;;;;;;;;;;4994062;28;20129;-69
2022/08/31 08:43:30;;;;;;;13.27;10.45;;;;;;;;;;4983905;28;20022;-75
2022/08/31 08:45:57;;;;;;;13.55;10.07;;;;;;;;;;4989336;28;20085;-71
2022/08/31 08:48:26;;;;;;;14.15;11.07;;;;;;;;;;4993401;28;20039;-70
2022/08/31 08:50:53;;;;;;;16.23;11.60;;;;;;;;;;4994607;28;20081;-69
2022/08/31 08:53:21;;;;;;;14.65;10.88;;;;;;;;;;4989177;28;20472;-71
2022/08/31 08:55:47;;;;;;;15.57;11.73;;;;;;;;;;4994895;28;20034;-70
2022/08/31 08:58:18;;;;;;;14.15;11.70;;;;;;;;;;4964558;28;20142;-70
2022/08/31 09:00:55;;;;;;;17.05;12.98;;;;;;;;;;4993924;28;20049;-71
2022/08/31 09:03:29;;;;;;;29.85;22.83;;;;;;;;;;4993399;28;20388;-72
2022/08/31 09:05:58;;;;;;;17.05;12.77;;;;;;;;;;4986837;28;20051;-67
2022/08/31 09:08:43;;;;;;;14.27;11.23;;;;;;;;;;4994499;28;20054;-69
2022/08/31 09:11:16;;;;;;;15.95;11.55;;;;;;;;;;4992444;28;20042;-69
2022/08/31 09:14:05;;;;;;;14.45;10.95;;;;;;;;;;4994247;28;20511;-73
2022/08/31 09:16:39;;;;;;;11.77;9.93;;;;;;;;;;4993625;28;20029;-68
2022/08/31 09:19:14;;;;;;;13.10;9.68;;;;;;;;;;4994298;28;20058;-68
2022/08/31 09:21:49;;;;;;;13.00;9.52;;;;;;;;;;4993985;28;20388;-71
2022/08/31 09:24:19;;;;;;;11.25;9.45;;;;;;;;;;4994210;28;20050;-71
2022/08/31 09:27:31;;;;;;;10.85;8.63;;;;;;;;;;4982795;28;20058;-69
2022/08/31 09:29:53;;;;;;;18.15;8.68;;;;;;;;;;4984523;28;20026;-69
2022/08/31 09:32:24;;;;;;;9.30;7.63;;;;;;;;;;4991421;28;20057;-72
2022/08/31 09:35:00;;;;;;;10.20;7.95;;;;;;;;;;4992242;28;20026;-72
2022/08/31 09:37:29;;;;;;;8.90;8.00;;;;;;;;;;4992090;28;20026;-72
2022/08/31 09:39:57;;;;;;;8.88;7.60;;;;;;;;;;4988168;28;20573;-70
2022/08/31 09:42:33;;;;;;;10.05;7.97;;;;;;;;;;5004536;28;20041;-74
2022/08/31 09:45:11;;;;;;;17.88;7.97;;;;;;;;;;4991834;28;20130;-73
2022/08/31 09:47:47;;;;;;;7.95;6.85;;;;;;;;;;4993636;28;20373;-76
2022/08/31 09:50:29;;;;;;;10.05;6.88;;;;;;;;;;4994127;28;20480;-75
2022/08/31 09:56:12;;;;;;;8.40;6.43;;;;;;;;;;4987329;28;20093;-81
2022/08/31 09:58:39;;;;;;;12.65;6.38;;;;;;;;;;4988996;28;20037;-74
2022/08/31 10:01:12;;;;;;;8.45;5.63;;;;;;;;;;4990477;28;20046;-73
2022/08/31 10:03:43;;;;;;;10.67;6.37;;;;;;;;;;4993280;28;20038;-82
2022/08/31 10:06:25;;;;;;;11.07;6.45;;;;;;;;;;5003668;28;20304;-74
2022/08/31 10:08:57;;;;;;;11.15;6.88;;;;;;;;;;5009868;28;20033;-79
2022/08/31 10:11:26;;;;;;;7.30;5.95;;;;;;;;;;5012080;28;20400;-86
2022/08/31 10:13:59;;;;;;;8.20;6.47;;;;;;;;;;5008987;28;20041;-69
2022/08/31 10:16:25;;;;;;;;;;;;;;;;;;5010985;28;20483;-74
2022/08/31 10:19:08;;;;;;;7.93;6.43;;;;;;;;;;5016918;28;19909;-75
2022/08/31 10:21:50;;;;;;;9.45;6.80;;;;;;;;;;5012544;28;20483;-72
2022/08/31 10:24:32;;;;;;;7.38;6.38;;;;;;;;;;5009134;28;20033;-78
2022/08/31 10:27:04;;;;;;;7.75;6.50;;;;;;;;;;5012996;28;20057;-75
2022/08/31 10:29:38;;;;;;;7.57;6.50;;;;;;;;;;5013328;28;20025;-76
2022/08/31 10:32:22;;;;;;;9.95;7.88;;;;;;;;;;5005337;28;20026;-76
2022/08/31 10:35:04;;;;;;;9.45;8.07;;;;;;;;;;5001123;28;20045;-74
2022/08/31 10:37:40;;;;;;;13.35;8.25;;;;;;;;;;4997575;28;20030;-75
2022/08/31 10:40:09;;;;;;;8.35;6.82;;;;;;;;;;5013179;28;20014;-73
2022/08/31 10:42:37;;;;;;;11.52;6.53;;;;;;;;;;5013020;28;20025;-75
2022/08/31 10:45:15;;;;;;;10.45;5.97;;;;;;;;;;5008075;28;20041;-76
2022/08/31 10:47:46;;;;;;;11.30;5.95;;;;;;;;;;5012318;28;20022;-78
2022/08/31 10:50:15;;;;;;;9.68;6.03;;;;;;;;;;5013276;28;20898;-78
2022/08/31 10:52:52;;;;;;;6.82;5.22;;;;;;;;;;5013091;28;20020;-77
2022/08/31 10:55:31;;;;;;;8.23;5.45;;;;;;;;;;5013197;28;20423;-79
2022/08/31 10:58:02;;;;;;;7.63;5.72;;;;;;;;;;5012508;28;20030;-80
2022/08/31 11:00:40;;;;;;;8.60;5.93;;;;;;;;;;5012856;28;20030;-78
2022/08/31 11:03:12;;;;;;;7.25;6.03;;;;;;;;;;5013381;28;20080;-77
2022/08/31 11:05:53;;;;;;;8.38;6.22;;;;;;;;;;5024067;28;20050;-75
2022/08/31 11:08:29;;;;;;;7.70;5.47;;;;;;;;;;5025566;28;20030;-76
2022/08/31 11:10:56;;;;;;;9.40;5.80;;;;;;;;;;5018547;28;20033;-77
2022/08/31 11:13:37;;;;;;;9.05;5.95;;;;;;;;;;5012994;28;20057;-76
2022/08/31 11:16:03;;;;;;;7.22;5.70;;;;;;;;;;5026674;28;20041;-79
2022/08/31 11:18:34;;;;;;;7.28;5.47;;;;;;;;;;5018089;28;20114;-75
2022/08/31 11:21:07;;;;;;;6.88;5.60;;;;;;;;;;5027405;28;20080;-76
2022/08/31 11:23:53;;;;;;;7.10;6.00;;;;;;;;;;5032481;28;20079;-77
2022/08/31 11:26:40;;;;;;;7.72;6.00;;;;;;;;;;5016017;28;20045;-78
2022/08/31 11:29:23;;;;;;;7.13;5.60;;;;;;;;;;5019484;28;20371;-78
2022/08/31 11:31:50;;;;;;;9.15;5.78;;;;;;;;;;5032379;28;20091;-78
2022/08/31 11:34:26;;;;;;;11.05;6.40;;;;;;;;;;5032346;28;20033;-75
2022/08/31 11:36:55;;;;;;;7.07;6.13;;;;;;;;;;5031292;28;20029;-78
2022/08/31 11:39:25;;;;;;;7.93;5.90;;;;;;;;;;5016668;28;20032;-75
2022/08/31 11:41:51;;;;;;;8.75;6.05;;;;;;;;;;5034603;28;20042;-79
2022/08/31 11:44:30;;;;;;;7.68;6.15;;;;;;;;;;5030106;28;20016;-76
2022/08/31 11:47:01;;;;;;;8.00;5.72;;;;;;;;;;5034671;28;20025;-75
2022/08/31 11:49:36;;;;;;;10.75;6.70;;;;;;;;;;5034125;28;20486;-76
2022/08/31 11:52:07;;;;;;;19.42;8.18;;;;;;;;;;5008930;28;20061;-77
2022/08/31 11:54:41;;;;;;;9.10;7.30;;;;;;;;;;5015638;28;20026;-74
2022/08/31 11:57:09;;;;;;;7.22;6.38;;;;;;;;;;5014805;28;20502;-75
2022/08/31 11:59:37;;;;;;;10.48;6.40;;;;;;;;;;5016146;28;20360;-77
2022/08/31 12:02:15;;;;;;;9.98;6.45;;;;;;;;;;5017989;28;20092;-77
2022/08/31 12:04:46;;;;;;;13.52;7.32;;;;;;;;;;5010948;28;20049;-74
2022/08/31 12:07:17;;;;;;;11.15;6.72;;;;;;;;;;5034489;28;20056;-77
2022/08/31 12:09:46;;;;;;;11.25;7.50;;;;;;;;;;5024186;28;20136;-73
2022/08/31 12:12:20;;;;;;;8.90;7.28;;;;;;;;;;5015606;28;20104;-79
2022/08/31 12:14:50;;;;;;;9.85;7.38;;;;;;;;;;5027339;28;20021;-77
2022/08/31 12:17:20;;;;;;;9.38;7.97;;;;;;;;;;5034035;28;20021;-77
2022/08/31 12:19:59;;;;;;;11.07;8.40;;;;;;;;;;5035391;28;20026;-76
2022/08/31 12:25:33;;;;;;;13.90;8.18;;;;;;;;;;5007147;28;20594;-75
2022/08/31 12:28:02;;;;;;;12.80;8.73;;;;;;;;;;5035349;28;20025;-79
2022/08/31 12:30:28;;;;;;;14.50;9.13;;;;;;;;;;5023872;28;20606;-75
2022/08/31 12:32:58;;;;;;;10.95;8.75;;;;;;;;;;5022690;28;20236;-74
2022/08/31 12:35:29;;;;;;;12.95;8.32;;;;;;;;;;5009845;28;20133;-76
2022/08/31 12:38:05;;;;;;;10.43;8.02;;;;;;;;;;5025514;28;20053;-79
2022/08/31 12:40:46;;;;;;;9.30;7.90;;;;;;;;;;5021277;28;20072;-78
2022/08/31 12:43:17;;;;;;;10.18;8.07;;;;;;;;;;5014710;28;20088;-82
2022/08/31 12:45:43;;;;;;;9.10;7.88;;;;;;;;;;5024227;28;20040;-81
2022/08/31 12:48:47;;;;;;;16.15;8.88;;;;;;;;;;5034690;28;20448;-81
2022/08/31 12:51:18;;;;;;;12.30;7.63;;;;;;;;;;4919850;29;20528;-80
2022/08/31 12:53:52;;;;;;;13.15;7.95;;;;;;;;;;4934794;29;20058;-80
2022/08/31 12:56:36;;;;;;;11.15;7.50;;;;;;;;;;4935419;29;20470;-78
2022/08/31 12:59:02;;;;;;;10.40;7.97;;;;;;;;;;4935374;29;20032;-78
2022/08/31 13:01:28;;;;;;;12.80;7.80;;;;;;;;;;4935301;29;20039;-75
2022/08/31 13:03:57;;;;;;;8.88;7.63;;;;;;;;;;4934743;29;20110;-77
2022/08/31 13:06:26;;;;;;;11.25;6.97;;;;;;;;;;4933494;29;20066;-79
2022/08/31 13:08:57;;;;;;;8.70;6.78;;;;;;;;;;4934582;29;20130;-80
2022/08/31 13:11:24;;;;;;;7.35;6.18;;;;;;;;;;4935221;29;20359;-82
2022/08/31 13:13:51;;;;;;;8.10;6.53;;;;;;;;;;4934124;29;20127;-80
2022/08/31 13:16:17;;;;;;;8.88;6.63;;;;;;;;;;4934947;29;20028;-78
2022/08/31 13:18:48;;;;;;;10.00;6.40;;;;;;;;;;4934670;29;20036;-77
2022/08/31 13:21:20;;;;;;;10.90;7.22;;;;;;;;;;4953501;28;20128;-70
2022/08/31 13:23:49;;;;;;;12.17;7.17;;;;;;;;;;5034397;28;20014;-77
2022/08/31 13:26:23;;;;;;;10.82;7.15;;;;;;;;;;5032799;28;20030;-81
2022/08/31 13:28:58;;;;;;;10.40;7.00;;;;;;;;;;5019813;28;20030;-79
2022/08/31 13:31:26;;;;;;;12.88;7.20;;;;;;;;;;5021869;28;20392;-76
2022/08/31 13:33:55;;;;;;;8.65;7.00;;;;;;;;;;5026725;28;20100;-80
2022/08/31 13:36:33;;;;;;;12.95;7.45;;;;;;;;;;5016212;28;20085;-80
2022/08/31 13:39:13;;;;;;;10.23;7.03;;;;;;;;;;5003427;28;20026;-77
2022/08/31 13:41:53;;;;;;;8.88;6.57;;;;;;;;;;5008566;28;20042;-80
2022/08/31 13:44:22;;;;;;;9.15;7.03;;;;;;;;;;5013444;28;20053;-79
2022/08/31 13:47:04;;;;;;;8.65;6.88;;;;;;;;;;5013936;28;20032;-79
2022/08/31 13:49:34;;;;;;;7.82;7.03;;;;;;;;;;5014050;28;20014;-80
2022/08/31 13:52:02;;;;;;;11.77;6.40;;;;;;;;;;5017780;28;20383;-80
2022/08/31 13:54:31;;;;;;;8.10;6.68;;;;;;;;;;5024107;28;20415;-80
2022/08/31 13:57:08;;;;;;;11.85;6.45;;;;;;;;;;5013585;28;20032;-76
2022/08/31 13:59:36;;;;;;;8.57;6.30;;;;;;;;;;5012806;28;20594;-77
2022/08/31 14:02:05;;;;;;;8.68;5.55;;;;;;;;;;5005012;28;20069;-80
2022/08/31 14:04:47;;;;;;;6.28;5.53;;;;;;;;;;5013150;28;20049;-78
2022/08/31 14:07:22;;;;;;;6.85;5.97;;;;;;;;;;5026667;28;20458;-80
2022/08/31 14:10:14;;;;;;;10.57;5.95;;;;;;;;;;5033148;28;20021;-82
2022/08/31 14:12:51;;;;;;;6.53;5.45;;;;;;;;;;4918337;29;20466;-79
2022/08/31 14:15:34;;;;;;;6.72;5.50;;;;;;;;;;4919609;29;20036;-79
2022/08/31 14:18:15;;;;;;;9.77;5.80;;;;;;;;;;4915190;29;20075;-79
2022/08/31 14:20:45;;;;;;;8.55;6.65;;;;;;;;;;4918443;29;20031;-77
2022/08/31 14:23:17;;;;;;;7.55;6.40;;;;;;;;;;4917759;29;20144;-79
2022/08/31 14:25:43;;;;;;;10.73;6.95;;;;;;;;;;4928134;29;20028;-78
2022/08/31 14:28:09;;;;;;;9.23;7.00;;;;;;;;;;4913913;29;20099;-75
2022/08/31 14:30:35;;;;;;;9.57;6.90;;;;;;;;;;4926737;29;20052;-80
2022/08/31 14:33:02;;;;;;;10.65;6.60;;;;;;;;;;4914551;29;20060;-79
2022/08/31 14:35:28;;;;;;;7.47;5.63;;;;;;;;;;4901190;29;20032;-76
2022/08/31 14:37:54;;;;;;;7.07;5.05;;;;;;;;;;4922430;29;20054;-76
2022/08/31 14:40:20;;;;;;;9.60;5.50;;;;;;;;;;4922341;29;20028;-78
2022/08/31 14:42:46;;;;;;;8.63;6.45;;;;;;;;;;4931651;29;20048;-80
2022/08/31 14:45:17;;;;;;;9.77;5.88;;;;;;;;;;4918218;29;20024;-79
2022/08/31 14:47:45;;;;;;;9.07;5.63;;;;;;;;;;4930442;29;20035;-78
2022/08/31 14:50:12;;;;;;;6.25;5.50;;;;;;;;;;5005442;28;20041;-77
2022/08/31 14:52:40;;;;;;;8.18;6.38;;;;;;;;;;5032916;28;20430;-79
2022/08/31 14:55:09;;;;;;;9.02;5.50;;;;;;;;;;5015421;28;20029;-79
2022/08/31 14:57:36;;;;;;;8.73;5.88;;;;;;;;;;5026838;28;20024;-79